Time;durP1;ratioP1;P1;durP2;ratioP2;P2;SDS_P1;SDS_P2;PMS_P1;PMS_P2;Temp;Humidity;BMP_temperature;BMP_pressure;BME280_temperature;BME280_humidity;BME280_pressure;Samples;Min_cycle;Max_cycle;Signal;HPM_P1;HPM_P2
2022/09/14 00:00:46;;;;;;;11.00;8.43;;;18.60;99.90;;;;;;4994089;28;20030;-49
2022/09/14 00:03:12;;;;;;;13.35;8.45;;;18.60;99.90;;;;;;4993050;28;20026;-53
2022/09/14 00:05:38;;;;;;;15.05;9.27;;;18.60;99.90;;;;;;4993745;28;20420;-46
2022/09/14 00:08:03;;;;;;;13.90;9.90;;;18.70;99.90;;;;;;4992851;28;20220;-47
2022/09/14 00:10:29;;;;;;;11.30;9.75;;;18.60;99.90;;;;;;4993714;28;20027;-47
2022/09/14 00:12:54;;;;;;;10.82;9.38;;;18.70;99.90;;;;;;4993393;28;20030;-43
2022/09/14 00:15:20;;;;;;;10.82;9.48;;;18.60;99.90;;;;;;4993365;28;20065;-47
2022/09/14 00:17:46;;;;;;;13.85;10.02;;;18.60;99.90;;;;;;4992215;28;20018;-49
2022/09/14 00:20:12;;;;;;;12.20;9.38;;;18.50;99.90;;;;;;4993175;28;20030;-47
2022/09/14 00:22:37;;;;;;;11.13;9.38;;;18.60;99.90;;;;;;4992121;28;20547;-45
2022/09/14 00:25:03;;;;;;;9.35;8.32;;;18.40;99.90;;;;;;4993143;28;20026;-45
2022/09/14 00:27:29;;;;;;;16.48;8.65;;;18.40;99.90;;;;;;4992990;28;20030;-54
2022/09/14 00:29:54;;;;;;;10.73;8.63;;;18.40;99.90;;;;;;4992996;28;20050;-44
2022/09/14 00:32:20;;;;;;;11.15;9.40;;;18.50;99.90;;;;;;4992529;28;20421;-47
2022/09/14 00:34:45;;;;;;;17.27;9.50;;;18.50;99.90;;;;;;4992973;28;20029;-49
2022/09/14 00:37:11;;;;;;;9.70;8.70;;;18.50;99.90;;;;;;4992897;28;20018;-50
2022/09/14 00:39:37;;;;;;;10.90;9.73;;;18.50;99.90;;;;;;4992722;28;20136;-49
2022/09/14 00:42:04;;;;;;;13.45;9.32;;;18.40;99.90;;;;;;4992492;28;20026;-48
2022/09/14 00:44:29;;;;;;;11.38;9.48;;;18.40;99.90;;;;;;4992647;28;20030;-48
2022/09/14 00:46:58;;;;;;;13.52;9.88;;;18.30;99.90;;;;;;4992588;28;20030;-46
2022/09/14 00:49:37;;;;;;;13.38;9.80;;;18.30;99.90;;;;;;4992499;28;20402;-50
2022/09/14 00:52:14;;;;;;;13.90;10.77;;;18.30;99.90;;;;;;4992686;28;20044;-46
2022/09/14 00:54:43;;;;;;;11.40;9.52;;;18.30;99.90;;;;;;4992751;28;20050;-46
2022/09/14 00:57:08;;;;;;;12.40;8.93;;;18.30;99.90;;;;;;4992677;28;20108;-49
2022/09/14 00:59:37;;;;;;;10.02;7.60;;;18.30;99.90;;;;;;4992393;28;20070;-47
2022/09/14 01:02:03;;;;;;;8.05;7.18;;;18.30;99.90;;;;;;4992062;28;20101;-42
2022/09/14 01:04:30;;;;;;;7.43;6.68;;;18.30;99.90;;;;;;4992351;28;20038;-50
2022/09/14 01:07:11;;;;;;;9.13;6.50;;;18.40;99.90;;;;;;4992603;28;20033;-48
2022/09/14 01:09:45;;;;;;;10.60;7.18;;;18.30;99.90;;;;;;4992178;28;20486;-46
2022/09/14 01:12:19;;;;;;;10.82;7.00;;;18.30;99.90;;;;;;4992014;28;20426;-45
2022/09/14 01:14:53;;;;;;;9.00;7.28;;;18.20;99.90;;;;;;4992434;28;20474;-44
2022/09/14 01:17:55;;;;;;;8.40;7.60;;;18.10;99.90;;;;;;4992276;28;20109;-45
2022/09/14 01:20:42;;;;;;;10.98;7.82;;;18.00;99.90;;;;;;4991311;28;20033;-46
2022/09/14 01:23:26;;;;;;;7.47;6.22;;;18.00;99.90;;;;;;4990366;28;20030;-47
2022/09/14 01:26:10;;;;;;;7.37;6.63;;;18.10;99.90;;;;;;4992246;28;20062;-48
2022/09/14 01:28:38;;;;;;;10.85;6.63;;;18.10;99.90;;;;;;4991982;28;20033;-46
2022/09/14 01:31:11;;;;;;;10.75;6.55;;;18.20;99.90;;;;;;4992419;28;20054;-46
2022/09/14 01:33:45;;;;;;;7.28;6.57;;;18.20;99.90;;;;;;4991729;28;20022;-45
2022/09/14 01:36:13;;;;;;;10.40;7.25;;;18.30;99.90;;;;;;4992604;28;20031;-52
2022/09/14 01:38:51;;;;;;;10.25;6.65;;;18.20;99.90;;;;;;4992464;28;20042;-48
2022/09/14 01:41:22;;;;;;;7.85;6.55;;;18.10;99.90;;;;;;4992036;28;20479;-46
2022/09/14 01:43:56;;;;;;;19.42;7.18;;;18.10;99.90;;;;;;4991651;28;20418;-45
2022/09/14 01:46:28;;;;;;;10.18;6.90;;;18.10;99.90;;;;;;4992357;28;20029;-47
2022/09/14 01:49:06;;;;;;;8.82;6.68;;;18.10;99.90;;;;;;4991929;28;20509;-51
2022/09/14 01:51:49;;;;;;;11.05;7.35;;;18.10;99.90;;;;;;4991787;28;20505;-45
2022/09/14 01:54:25;;;;;;;11.80;6.90;;;18.10;99.90;;;;;;4991709;28;20497;-47
2022/09/14 01:56:57;;;;;;;15.88;8.18;;;18.10;99.90;;;;;;4992012;28;20022;-48
2022/09/14 01:59:26;;;;;;;12.63;7.72;;;18.00;99.90;;;;;;4991760;28;20169;-46
2022/09/14 02:01:59;;;;;;;11.02;8.23;;;18.10;99.90;;;;;;4991553;28;20501;-43
2022/09/14 02:04:35;;;;;;;8.77;7.78;;;18.10;99.90;;;;;;4991748;28;20030;-47
2022/09/14 02:07:01;;;;;;;21.95;10.05;;;18.10;99.90;;;;;;4990554;28;20041;-47
2022/09/14 02:09:27;;;;;;;11.10;7.95;;;18.00;99.90;;;;;;4991603;28;20026;-47
2022/09/14 02:11:54;;;;;;;10.23;7.53;;;18.00;99.90;;;;;;4991506;28;20018;-45
2022/09/14 02:14:21;;;;;;;8.95;8.05;;;18.00;99.90;;;;;;4991957;28;20030;-46
2022/09/14 02:16:47;;;;;;;9.75;8.15;;;18.00;99.90;;;;;;4991624;28;20133;-43
2022/09/14 02:19:13;;;;;;;11.30;7.93;;;18.00;99.90;;;;;;4991679;28;20105;-47
2022/09/14 02:21:39;;;;;;;10.27;8.30;;;18.00;99.90;;;;;;4991470;28;20040;-54
2022/09/14 02:24:06;;;;;;;10.52;8.40;;;18.00;99.90;;;;;;4991264;28;20093;-48
2022/09/14 02:26:31;;;;;;;11.20;8.23;;;17.90;99.90;;;;;;4991510;28;20030;-45
2022/09/14 02:28:57;;;;;;;13.30;7.82;;;18.00;99.90;;;;;;4991450;28;20058;-50
2022/09/14 02:31:56;;;;;;;10.13;8.63;;;18.00;99.90;;;;;;4993341;28;20262;-46
2022/09/14 02:35:13;;;;;;;11.35;8.20;;;18.00;99.90;;;;;;4995117;28;20033;-48
2022/09/14 02:37:53;;;;;;;9.73;7.95;;;18.00;99.90;;;;;;4994965;28;20482;-47
2022/09/14 02:40:41;;;;;;;15.75;9.10;;;18.00;99.90;;;;;;4995170;28;20077;-51
2022/09/14 02:43:41;;;;;;;11.38;9.68;;;17.90;99.90;;;;;;4994448;28;20030;-49
2022/09/14 02:46:20;;;;;;;16.05;10.45;;;17.90;99.90;;;;;;4994887;28;20021;-52
2022/09/14 02:49:03;;;;;;;12.20;9.65;;;17.90;99.90;;;;;;4994838;28;20033;-51
2022/09/14 02:51:46;;;;;;;16.25;10.38;;;17.90;99.90;;;;;;4994801;28;20080;-48
2022/09/14 02:54:41;;;;;;;12.05;10.68;;;17.90;99.90;;;;;;4994522;28;20093;-42
2022/09/14 02:57:07;;;;;;;15.70;10.45;;;18.20;99.90;;;;;;4994089;28;20034;-43
2022/09/14 02:59:32;;;;;;;16.67;10.65;;;18.00;99.90;;;;;;4994456;28;20077;-55
2022/09/14 03:02:00;;;;;;;14.75;11.57;;;17.90;99.90;;;;;;4994209;28;20026;-48
2022/09/14 03:04:26;;;;;;;14.38;11.00;;;17.90;99.90;;;;;;4994586;28;20026;-47
2022/09/14 03:06:51;;;;;;;13.95;10.80;;;17.80;99.90;;;;;;4994499;28;20030;-47
2022/09/14 03:09:17;;;;;;;13.38;10.48;;;17.90;99.90;;;;;;4994397;28;20084;-47
2022/09/14 03:11:42;;;;;;;13.55;9.98;;;17.90;99.90;;;;;;4993600;28;20050;-47
2022/09/14 03:14:09;;;;;;;12.98;10.27;;;17.90;99.90;;;;;;4994612;28;20018;-49
2022/09/14 03:16:36;;;;;;;10.82;9.60;;;17.80;99.90;;;;;;4994185;28;20023;-49
2022/09/14 03:19:02;;;;;;;11.57;9.05;;;17.80;99.90;;;;;;4994194;28;20427;-50
2022/09/14 03:21:27;;;;;;;10.57;8.55;;;17.80;99.90;;;;;;4993995;28;20121;-51
2022/09/14 03:23:56;;;;;;;11.63;9.15;;;17.80;99.90;;;;;;4993653;28;20039;-48
2022/09/14 03:26:23;;;;;;;11.10;9.40;;;17.80;99.90;;;;;;4993936;28;20049;-48
2022/09/14 03:28:58;;;;;;;11.38;8.85;;;17.90;99.90;;;;;;4993827;28;20032;-51
2022/09/14 03:31:25;;;;;;;11.65;10.10;;;17.90;99.90;;;;;;4994120;28;20053;-47
2022/09/14 03:33:55;;;;;;;15.52;10.27;;;17.80;99.90;;;;;;4993584;28;20045;-45
2022/09/14 03:36:22;;;;;;;10.60;9.30;;;17.80;99.90;;;;;;4992512;28;20033;-49
2022/09/14 03:38:49;;;;;;;12.05;9.00;;;17.80;99.90;;;;;;4993851;28;20406;-48
2022/09/14 03:41:15;;;;;;;14.20;9.95;;;17.80;99.90;;;;;;4993691;28;20030;-49
2022/09/14 03:43:42;;;;;;;11.50;9.07;;;17.80;99.90;;;;;;4993403;28;20030;-45
2022/09/14 03:46:13;;;;;;;11.73;9.45;;;17.80;99.90;;;;;;4993462;28;20030;-45
2022/09/14 03:48:39;;;;;;;15.70;10.25;;;17.80;99.90;;;;;;4993444;28;20117;-46
2022/09/14 03:51:06;;;;;;;15.68;10.32;;;17.70;99.90;;;;;;4993696;28;20072;-51
2022/09/14 03:53:32;;;;;;;13.02;10.13;;;17.80;99.90;;;;;;4993211;28;20019;-50
2022/09/14 03:55:58;;;;;;;12.07;9.82;;;17.80;99.90;;;;;;4959825;28;20023;-49
2022/09/14 03:58:24;;;;;;;16.92;10.35;;;18.10;99.90;;;;;;4993508;28;20076;-51
2022/09/14 04:00:49;;;;;;;12.98;10.30;;;17.80;99.90;;;;;;4993463;28;20085;-46
2022/09/14 04:03:15;;;;;;;15.25;11.52;;;17.80;99.90;;;;;;4992998;28;20049;-51
2022/09/14 04:05:40;;;;;;;14.65;10.27;;;17.70;99.90;;;;;;4993260;28;20555;-47
2022/09/14 04:08:06;;;;;;;13.38;10.32;;;17.70;99.90;;;;;;4993108;28;20132;-51
2022/09/14 04:10:32;;;;;;;12.75;10.15;;;17.70;99.90;;;;;;4993164;28;20014;-47
2022/09/14 04:12:58;;;;;;;13.32;11.18;;;17.70;99.90;;;;;;4992944;28;20157;-43
2022/09/14 04:15:24;;;;;;;17.67;12.25;;;17.70;99.90;;;;;;4993141;28;20035;-46
2022/09/14 04:17:50;;;;;;;13.05;10.95;;;17.70;99.90;;;;;;4993152;28;20053;-48
2022/09/14 04:20:17;;;;;;;12.25;10.95;;;17.70;99.90;;;;;;4992955;28;20055;-51
2022/09/14 04:22:42;;;;;;;15.40;10.20;;;17.70;99.90;;;;;;4992626;28;20042;-45
2022/09/14 04:25:08;;;;;;;14.02;10.27;;;17.70;99.90;;;;;;5023211;22;20422;-48
2022/09/14 04:27:34;;;;;;;11.10;9.85;;;17.70;99.90;;;;;;5012565;28;20065;-46
2022/09/14 04:29:59;;;;;;;13.10;10.20;;;17.70;99.90;;;;;;5012408;28;20026;-46
2022/09/14 04:32:25;;;;;;;13.13;10.52;;;17.70;99.90;;;;;;5012492;28;20105;-50
2022/09/14 04:34:50;;;;;;;13.07;10.60;;;17.70;99.90;;;;;;5012607;28;20026;-46
2022/09/14 04:37:16;;;;;;;12.20;10.90;;;17.70;99.90;;;;;;5012471;28;20014;-46
2022/09/14 04:39:41;;;;;;;11.73;10.40;;;17.60;99.90;;;;;;5010889;28;20080;-46
2022/09/14 04:42:07;;;;;;;12.48;10.90;;;17.40;99.90;;;;;;5011888;28;20025;-49
2022/09/14 04:44:32;;;;;;;11.15;10.13;;;17.60;99.90;;;;;;5012395;28;20108;-44
2022/09/14 04:46:58;;;;;;;15.73;12.73;;;17.70;99.90;;;;;;5012229;28;20083;-46
2022/09/14 04:49:23;;;;;;;14.30;11.98;;;17.60;99.90;;;;;;5012099;28;20477;-47
2022/09/14 04:51:49;;;;;;;16.00;12.55;;;17.60;99.90;;;;;;5012206;28;20037;-49
2022/09/14 04:54:16;;;;;;;17.95;12.68;;;17.50;99.90;;;;;;5011576;28;20029;-50
2022/09/14 04:56:42;;;;;;;13.85;12.30;;;17.50;99.90;;;;;;5012012;28;20049;-49
2022/09/14 04:59:09;;;;;;;14.00;12.60;;;17.60;99.90;;;;;;5012047;28;20018;-47
2022/09/14 05:01:37;;;;;;;17.23;13.55;;;17.50;99.90;;;;;;5012107;28;20022;-46
2022/09/14 05:04:05;;;;;;;17.20;12.75;;;17.50;99.90;;;;;;5010312;28;20022;-50
2022/09/14 05:06:32;;;;;;;14.20;10.60;;;17.50;99.90;;;;;;5011964;28;20026;-48
2022/09/14 05:08:59;;;;;;;15.75;10.95;;;17.30;99.90;;;;;;5012108;28;20030;-45
2022/09/14 05:11:27;;;;;;;14.10;10.45;;;17.50;99.90;;;;;;5012126;28;20033;-47
2022/09/14 05:13:55;;;;;;;11.68;10.48;;;17.50;99.90;;;;;;5011525;28;20022;-46
2022/09/14 05:16:25;;;;;;;12.48;10.23;;;17.70;99.90;;;;;;5011895;28;20022;-45
2022/09/14 05:18:53;;;;;;;14.80;11.27;;;17.50;99.90;;;;;;5027241;28;20033;-45
2022/09/14 05:21:20;;;;;;;13.35;11.60;;;17.60;99.90;;;;;;5011636;28;20076;-47
2022/09/14 05:23:46;;;;;;;14.60;13.20;;;17.60;99.90;;;;;;5011634;28;20505;-46
2022/09/14 05:26:13;;;;;;;15.68;12.77;;;17.50;99.90;;;;;;5011922;28;20025;-47
2022/09/14 05:28:38;;;;;;;13.50;11.02;;;17.50;99.90;;;;;;5011511;28;20165;-45
2022/09/14 05:31:10;;;;;;;12.15;10.80;;;17.50;99.90;;;;;;5011679;28;20505;-49
2022/09/14 05:33:35;;;;;;;17.38;10.63;;;17.50;99.90;;;;;;5011321;28;20129;-45
2022/09/14 05:36:06;;;;;;;18.27;11.80;;;17.50;99.90;;;;;;5011966;28;20141;-46
2022/09/14 05:38:35;;;;;;;18.23;14.65;;;17.60;99.90;;;;;;5011572;28;20061;-46
2022/09/14 05:41:00;;;;;;;21.10;17.00;;;17.60;99.90;;;;;;5011649;28;20022;-40
2022/09/14 05:43:27;;;;;;;16.90;15.23;;;17.60;99.90;;;;;;5026329;28;20034;-45
2022/09/14 05:45:53;;;;;;;13.88;11.75;;;17.60;99.90;;;;;;5011522;28;20401;-48
2022/09/14 05:48:19;;;;;;;13.10;9.77;;;17.60;99.90;;;;;;5011197;28;20026;-48
2022/09/14 05:50:44;;;;;;;12.75;10.55;;;17.70;99.90;;;;;;5012212;28;20029;-45
2022/09/14 05:53:10;;;;;;;12.38;9.50;;;17.70;99.90;;;;;;5011247;28;20053;-45
2022/09/14 05:55:35;;;;;;;13.00;10.05;;;17.70;99.90;;;;;;5011304;28;20030;-45
2022/09/14 05:58:01;;;;;;;11.57;9.75;;;17.70;99.90;;;;;;5011339;28;20049;-43
2022/09/14 06:00:26;;;;;;;12.13;9.23;;;17.70;99.90;;;;;;5010303;28;20018;-44
2022/09/14 06:02:53;;;;;;;13.68;10.25;;;17.70;99.90;;;;;;5011144;28;20099;-43
2022/09/14 06:05:20;;;;;;;14.70;9.95;;;17.80;99.90;;;;;;5011670;28;20056;-44
2022/09/14 06:07:51;;;;;;;14.25;9.80;;;17.80;99.90;;;;;;5016291;28;20085;-45
2022/09/14 06:10:17;;;;;;;12.75;9.68;;;17.80;99.90;;;;;;5015604;28;20030;-49
2022/09/14 06:12:43;;;;;;;10.48;9.20;;;17.80;99.90;;;;;;5015720;28;20018;-46
2022/09/14 06:15:09;;;;;;;13.18;9.93;;;17.80;99.90;;;;;;5013540;28;20045;-48
2022/09/14 06:17:35;;;;;;;15.20;9.90;;;17.80;99.90;;;;;;5015235;28;20477;-47
2022/09/14 06:20:02;;;;;;;14.93;10.15;;;17.80;99.90;;;;;;5014834;28;20076;-46
2022/09/14 06:22:27;;;;;;;12.95;9.65;;;17.80;99.90;;;;;;5014515;28;20390;-48
2022/09/14 06:24:53;;;;;;;10.05;8.70;;;17.80;99.90;;;;;;5014881;28;20029;-48
2022/09/14 06:27:18;;;;;;;10.18;8.82;;;17.80;99.90;;;;;;5015077;28;20029;-46
2022/09/14 06:29:44;;;;;;;15.88;10.13;;;17.80;99.90;;;;;;5014749;28;20022;-49
2022/09/14 06:32:09;;;;;;;12.15;9.27;;;17.80;99.90;;;;;;5014411;28;20371;-48
2022/09/14 06:34:35;;;;;;;9.75;8.23;;;17.90;99.90;;;;;;5014591;28;20434;-47
2022/09/14 06:37:00;;;;;;;16.75;9.65;;;17.80;99.90;;;;;;5014634;28;20096;-46
2022/09/14 06:39:26;;;;;;;13.77;9.70;;;17.90;99.90;;;;;;5014512;28;20026;-48
2022/09/14 06:41:51;;;;;;;9.88;8.40;;;17.90;99.90;;;;;;5014339;28;20077;-45
2022/09/14 06:44:17;;;;;;;9.98;8.55;;;18.00;99.90;;;;;;5014376;28;20057;-46
2022/09/14 06:46:43;;;;;;;11.80;7.78;;;18.10;99.90;;;;;;5014605;28;20639;-45
2022/09/14 06:49:12;;;;;;;13.40;8.50;;;18.10;99.90;;;;;;5014618;28;20030;-46
2022/09/14 06:51:43;;;;;;;11.90;8.60;;;18.10;99.90;;;;;;5015075;28;20018;-45
2022/09/14 06:54:11;;;;;;;9.35;7.07;;;18.10;99.90;;;;;;5014580;28;20032;-49
2022/09/14 06:56:38;;;;;;;12.68;7.22;;;18.10;99.90;;;;;;5015195;28;20034;-49
2022/09/14 06:59:07;;;;;;;10.75;7.82;;;18.10;99.90;;;;;;5014913;28;20083;-45
2022/09/14 07:01:33;;;;;;;8.65;6.90;;;18.10;99.90;;;;;;5014739;28;20033;-52
2022/09/14 07:04:00;;;;;;;10.13;7.10;;;18.10;99.90;;;;;;5014014;28;20034;-43
2022/09/14 07:06:28;;;;;;;10.02;6.78;;;18.20;99.90;;;;;;5014291;28;20036;-44
2022/09/14 07:08:54;;;;;;;8.02;7.22;;;18.20;99.90;;;;;;5014332;28;20030;-47
2022/09/14 07:11:22;;;;;;;14.30;7.10;;;18.20;99.90;;;;;;5014594;28;20029;-43
2022/09/14 07:13:48;;;;;;;9.25;6.43;;;18.20;99.90;;;;;;5014114;28;20025;-45
2022/09/14 07:16:14;;;;;;;8.77;6.65;;;18.20;99.90;;;;;;5014312;28;20445;-47
2022/09/14 07:18:40;;;;;;;9.18;7.65;;;18.30;99.90;;;;;;5013840;28;20474;-47
2022/09/14 07:21:11;;;;;;;10.55;7.15;;;18.30;99.90;;;;;;5013800;28;20076;-51
2022/09/14 07:23:39;;;;;;;8.88;6.20;;;18.30;99.90;;;;;;5013367;28;20433;-44
2022/09/14 07:26:09;;;;;;;7.93;5.90;;;18.40;99.90;;;;;;5013791;28;20033;-45
2022/09/14 07:28:35;;;;;;;8.48;6.03;;;18.40;99.90;;;;;;5012134;28;20045;-48
2022/09/14 07:31:01;;;;;;;7.07;5.88;;;18.50;99.90;;;;;;5013910;28;20497;-47
2022/09/14 07:33:27;;;;;;;9.75;5.65;;;18.50;99.90;;;;;;5013545;28;20118;-50
2022/09/14 07:35:53;;;;;;;7.03;4.28;;;18.40;99.90;;;;;;5013678;28;20026;-45
2022/09/14 07:38:19;;;;;;;6.50;4.85;;;18.70;99.90;;;;;;5013633;28;20037;-49
2022/09/14 07:40:45;;;;;;;8.20;5.53;;;18.80;99.90;;;;;;5014636;28;20026;-51
2022/09/14 07:43:11;;;;;;;6.45;4.50;;;19.20;99.90;;;;;;5013504;28;20076;-45
2022/09/14 07:45:37;;;;;;;4.40;3.55;;;19.60;99.90;;;;;;5013538;28;20473;-46
2022/09/14 07:48:04;;;;;;;7.75;4.07;;;20.00;99.90;;;;;;5013542;28;20026;-47
2022/09/14 07:50:30;;;;;;;6.93;4.15;;;20.20;99.90;;;;;;5013261;28;20133;-49
2022/09/14 07:52:56;;;;;;;7.03;4.15;;;20.20;99.90;;;;;;5012935;28;20585;-47
2022/09/14 07:55:21;;;;;;;4.50;4.10;;;20.10;99.90;;;;;;5012975;28;20121;-49
2022/09/14 07:57:47;;;;;;;4.72;3.60;;;20.10;99.90;;;;;;5013303;28;20022;-47
2022/09/14 08:00:13;;;;;;;6.93;4.10;;;19.90;99.90;;;;;;5013484;28;20030;-47
2022/09/14 08:02:39;;;;;;;4.60;4.20;;;19.70;99.90;;;;;;5012968;28;20045;-49
2022/09/14 08:05:05;;;;;;;5.97;4.28;;;19.50;99.90;;;;;;5013319;28;20397;-45
2022/09/14 08:07:31;;;;;;;4.80;4.35;;;19.40;99.90;;;;;;5013364;28;20535;-47
2022/09/14 08:09:56;;;;;;;8.93;5.00;;;19.30;99.90;;;;;;5013075;28;20042;-50
2022/09/14 08:12:23;;;;;;;5.10;4.28;;;19.20;99.90;;;;;;5013438;28;20033;-49
2022/09/14 08:14:50;;;;;;;4.75;3.65;;;19.30;99.90;;;;;;5013752;28;20028;-48
2022/09/14 08:17:15;;;;;;;4.65;4.18;;;19.30;99.90;;;;;;5013149;28;20532;-48
2022/09/14 08:19:41;;;;;;;7.88;3.97;;;19.40;99.90;;;;;;5013014;28;20065;-46
2022/09/14 08:22:07;;;;;;;5.00;3.97;;;19.40;99.90;;;;;;5012889;28;20044;-48
2022/09/14 08:24:32;;;;;;;5.30;4.30;;;19.50;99.90;;;;;;5012767;28;20065;-48
2022/09/14 08:26:58;;;;;;;5.95;4.50;;;19.50;99.90;;;;;;5012182;28;20030;-47
2022/09/14 08:29:24;;;;;;;5.78;4.20;;;19.50;99.90;;;;;;5011866;28;20505;-45
2022/09/14 08:31:51;;;;;;;7.45;4.85;;;19.50;99.90;;;;;;5013250;28;20018;-42
2022/09/14 08:34:17;;;;;;;6.20;5.07;;;19.60;99.90;;;;;;5013225;28;20308;-46
2022/09/14 08:36:44;;;;;;;6.88;4.30;;;19.60;99.90;;;;;;5012898;28;20054;-45
2022/09/14 08:39:12;;;;;;;8.63;4.88;;;19.50;99.90;;;;;;5012519;28;20087;-43
2022/09/14 08:41:49;;;;;;;5.30;4.70;;;19.50;99.90;;;;;;5012533;28;20406;-47
2022/09/14 08:44:35;;;;;;;5.88;5.10;;;19.50;99.90;;;;;;5012302;28;20474;-45
2022/09/14 08:47:02;;;;;;;10.65;5.97;;;19.60;99.90;;;;;;5027839;28;20145;-48
2022/09/14 08:49:46;;;;;;;6.63;5.60;;;19.50;99.90;;;;;;5005117;28;20026;-45
2022/09/14 08:52:48;;;;;;;10.45;6.32;;;19.40;99.90;;;;;;5011503;28;20026;-50
2022/09/14 08:55:44;;;;;;;7.03;5.57;;;19.30;99.90;;;;;;5021819;28;20034;-44
2022/09/14 08:58:09;;;;;;;11.57;6.18;;;19.20;99.90;;;;;;5011785;28;20058;-41
2022/09/14 09:00:39;;;;;;;13.93;6.45;;;19.40;99.90;;;;;;5012436;28;20062;-45
2022/09/14 09:03:33;;;;;;;8.48;6.60;;;19.20;99.90;;;;;;5011863;28;20025;-42
2022/09/14 09:06:27;;;;;;;10.98;6.60;;;19.20;99.90;;;;;;4992418;28;20450;-44
2022/09/14 09:09:18;;;;;;;17.60;8.85;;;19.30;99.90;;;;;;5011094;28;20475;-43
2022/09/14 09:11:47;;;;;;;7.32;6.72;;;19.40;99.90;;;;;;5006923;28;20037;-46
2022/09/14 09:14:38;;;;;;;7.43;6.55;;;19.40;99.90;;;;;;5011152;28;20033;-44
2022/09/14 09:17:13;;;;;;;10.35;6.90;;;19.60;99.90;;;;;;5011745;28;20096;-43
2022/09/14 09:20:16;;;;;;;7.53;6.63;;;19.60;99.90;;;;;;5011659;28;20026;-51
2022/09/14 09:22:47;;;;;;;8.52;6.55;;;19.70;99.90;;;;;;5010669;28;20026;-45
2022/09/14 09:25:19;;;;;;;6.53;5.93;;;19.60;99.90;;;;;;5027799;28;20455;-41
2022/09/14 09:27:46;;;;;;;6.88;5.80;;;19.80;99.90;;;;;;5031605;28;20029;-43
2022/09/14 09:30:14;;;;;;;9.43;6.32;;;19.70;99.90;;;;;;5019251;28;20025;-45
2022/09/14 09:32:40;;;;;;;6.78;6.18;;;19.70;99.90;;;;;;5011467;28;20101;-42
2022/09/14 09:35:05;;;;;;;6.38;5.28;;;19.70;99.90;;;;;;5011690;28;20053;-42
2022/09/14 09:37:36;;;;;;;6.88;5.82;;;19.70;99.90;;;;;;5011072;28;20501;-46
2022/09/14 09:40:05;;;;;;;6.07;5.22;;;19.60;99.90;;;;;;5011348;28;20033;-46
2022/09/14 09:42:30;;;;;;;9.15;5.85;;;19.50;99.90;;;;;;5011348;28;20026;-46
2022/09/14 09:44:59;;;;;;;6.97;6.28;;;19.40;99.90;;;;;;5010234;28;20493;-48
2022/09/14 09:47:39;;;;;;;7.75;6.10;;;19.40;99.90;;;;;;5012989;28;20493;-47
2022/09/14 09:50:20;;;;;;;7.53;6.35;;;19.40;99.90;;;;;;5014354;28;20565;-54
2022/09/14 09:52:54;;;;;;;8.75;6.32;;;19.50;99.90;;;;;;5012838;28;20476;-48
2022/09/14 09:55:22;;;;;;;7.30;6.18;;;19.40;99.90;;;;;;5011627;28;20056;-45
2022/09/14 09:57:48;;;;;;;7.65;6.93;;;19.50;99.90;;;;;;5008763;28;20429;-52
2022/09/14 10:00:23;;;;;;;6.20;5.38;;;19.70;99.90;;;;;;5012048;28;20042;-42
2022/09/14 10:02:49;;;;;;;6.80;6.15;;;19.60;99.90;;;;;;5013146;28;20026;-43
2022/09/14 10:05:27;;;;;;;10.45;6.47;;;19.80;99.90;;;;;;5008047;28;20041;-43
2022/09/14 10:08:05;;;;;;;7.35;5.78;;;20.00;99.90;;;;;;5013714;28;20036;-44
2022/09/14 10:10:33;;;;;;;6.20;5.70;;;20.10;99.90;;;;;;5009271;28;20022;-44
2022/09/14 10:12:59;;;;;;;10.07;6.22;;;20.20;99.90;;;;;;5013099;28;20494;-46
2022/09/14 10:15:31;;;;;;;6.78;5.43;;;20.30;99.90;;;;;;5011956;28;20486;-48
2022/09/14 10:18:07;;;;;;;5.50;4.75;;;20.40;99.90;;;;;;5012912;28;20058;-48
2022/09/14 10:20:33;;;;;;;6.25;5.65;;;20.60;99.90;;;;;;5013470;28;20478;-50
2022/09/14 10:23:16;;;;;;;7.88;4.82;;;20.80;99.90;;;;;;5013088;28;20040;-55
2022/09/14 10:25:46;;;;;;;6.20;4.88;;;20.90;99.90;;;;;;5020225;22;20058;-45
2022/09/14 10:28:21;;;;;;;9.20;4.82;;;21.10;99.90;;;;;;5008095;28;20022;-57
2022/09/14 10:31:03;;;;;;;4.90;4.43;;;21.20;99.90;;;;;;5008274;28;20022;-51
2022/09/14 10:33:29;;;;;;;5.70;4.20;;;21.30;99.90;;;;;;5007658;28;20344;-54
2022/09/14 10:36:24;;;;;;;9.38;5.15;;;21.40;99.90;;;;;;4991387;28;20025;-50
2022/09/14 10:39:06;;;;;;;8.80;6.03;;;21.40;99.90;;;;;;4992265;28;20030;-58
2022/09/14 10:41:38;;;;;;;5.55;5.03;;;21.40;99.90;;;;;;4992899;28;20503;-54
2022/09/14 10:44:31;;;;;;;7.63;5.47;;;21.30;99.90;;;;;;4994272;28;20022;-49
2022/09/14 10:47:22;;;;;;;7.55;5.55;;;21.10;99.90;;;;;;4989653;28;20027;-45
2022/09/14 10:50:01;;;;;;;5.00;4.50;;;21.00;99.90;;;;;;4984633;28;20041;-49
2022/09/14 10:52:35;;;;;;;9.15;6.25;;;21.00;99.90;;;;;;4992679;28;20375;-46
2022/09/14 10:55:30;;;;;;;6.80;5.78;;;20.90;99.90;;;;;;4994307;28;20097;-49
2022/09/14 10:58:23;;;;;;;10.52;6.55;;;20.90;99.90;;;;;;4994339;28;20022;-45
2022/09/14 11:01:21;;;;;;;10.35;5.85;;;20.90;99.90;;;;;;4993670;28;20076;-44
2022/09/14 11:03:58;;;;;;;6.68;5.85;;;20.90;99.90;;;;;;4994298;28;20449;-43
2022/09/14 11:06:51;;;;;;;12.73;7.78;;;21.00;99.90;;;;;;4994133;28;20101;-46
2022/09/14 11:09:25;;;;;;;10.82;6.32;;;21.00;99.90;;;;;;4994096;28;20410;-43
2022/09/14 11:12:07;;;;;;;14.57;8.68;;;21.00;99.90;;;;;;4994318;28;20034;-47
2022/09/14 11:14:54;;;;;;;12.98;9.50;;;21.00;99.90;;;;;;4993308;28;20038;-45
2022/09/14 11:17:39;;;;;;;15.15;10.18;;;21.00;99.90;;;;;;4994452;28;20027;-45
2022/09/14 11:20:26;;;;;;;14.15;9.52;;;21.00;99.90;;;;;;4994225;28;20396;-44
2022/09/14 11:23:09;;;;;;;11.48;8.65;;;20.80;99.90;;;;;;4994120;28;20041;-45
2022/09/14 11:26:12;;;;;;;18.13;10.50;;;20.80;99.90;;;;;;4994038;28;20088;-50
2022/09/14 11:28:43;;;;;;;14.02;9.35;;;20.80;99.90;;;;;;4982888;28;20046;-45
2022/09/14 11:31:17;;;;;;;16.08;10.70;;;20.80;99.90;;;;;;4992946;28;20114;-42
2022/09/14 11:33:56;;;;;;;13.35;10.32;;;20.80;99.90;;;;;;4994024;28;20046;-49
2022/09/14 11:36:29;;;;;;;12.40;9.48;;;20.80;99.90;;;;;;4994153;28;20069;-44
2022/09/14 11:39:02;;;;;;;15.07;11.50;;;20.80;99.90;;;;;;4993856;28;20034;-44
2022/09/14 11:41:44;;;;;;;11.65;9.57;;;20.90;99.90;;;;;;4993949;28;20034;-48
2022/09/14 11:44:25;;;;;;;12.35;8.98;;;21.00;99.90;;;;;;4993575;28;20026;-46
2022/09/14 11:47:02;;;;;;;14.20;10.20;;;21.20;99.90;;;;;;4993787;28;20038;-39
2022/09/14 11:49:39;;;;;;;11.63;8.65;;;21.30;99.90;;;;;;4993689;28;20037;-44
2022/09/14 11:52:23;;;;;;;11.13;7.60;;;21.40;99.90;;;;;;4993362;28;20018;-45
2022/09/14 11:54:49;;;;;;;9.55;8.32;;;21.40;99.90;;;;;;4993652;28;20037;-47
2022/09/14 11:57:22;;;;;;;9.15;8.07;;;21.40;99.90;;;;;;4993863;28;20470;-44
2022/09/14 11:59:57;;;;;;;10.07;8.43;;;21.60;99.90;;;;;;4993300;28;20109;-50
2022/09/14 12:02:22;;;;;;;11.02;7.53;;;21.80;99.90;;;;;;4993108;28;20077;-41
2022/09/14 12:05:28;;;;;;;9.93;7.82;;;21.70;99.90;;;;;;4993299;28;20479;-45
2022/09/14 12:08:02;;;;;;;14.90;7.85;;;21.70;99.90;;;;;;4971695;28;20039;-44
2022/09/14 12:10:28;;;;;;;14.85;8.02;;;21.90;99.90;;;;;;4971596;28;20023;-44
2022/09/14 12:12:57;;;;;;;11.25;7.97;;;22.10;99.90;;;;;;4983519;28;20037;-44
2022/09/14 12:15:26;;;;;;;8.38;7.47;;;22.10;99.90;;;;;;4993093;28;20026;-45
2022/09/14 12:18:06;;;;;;;7.78;6.97;;;22.10;99.90;;;;;;4993146;28;20085;-45
2022/09/14 12:21:11;;;;;;;7.78;6.20;;;22.00;99.90;;;;;;4993196;28;20398;-45
2022/09/14 12:23:36;;;;;;;7.97;6.70;;;22.10;99.90;;;;;;4989493;28;20380;-43
2022/09/14 12:26:05;;;;;;;8.18;6.22;;;22.00;99.90;;;;;;4993836;28;20045;-43
2022/09/14 12:28:36;;;;;;;8.93;6.60;;;22.10;99.90;;;;;;4994003;28;20089;-44
2022/09/14 12:31:02;;;;;;;11.23;6.70;;;22.10;99.90;;;;;;4992310;28;20030;-39
2022/09/14 12:36:09;;;;;;;7.13;5.60;;;22.00;99.90;;;;;;4992607;28;20026;-44
2022/09/14 12:38:53;;;;;;;6.70;5.43;;;22.00;99.90;;;;;;4974266;28;20050;-42
2022/09/14 12:41:18;;;;;;;8.13;5.72;;;22.00;99.90;;;;;;4974716;28;20023;-42
2022/09/14 12:43:44;;;;;;;8.85;6.32;;;22.00;99.90;;;;;;4983344;28;20383;-40
2022/09/14 12:46:18;;;;;;;9.93;6.40;;;21.90;99.90;;;;;;4994138;28;20030;-43
2022/09/14 12:48:47;;;;;;;6.55;5.95;;;21.90;99.90;;;;;;4993471;28;20081;-45
2022/09/14 12:51:34;;;;;;;5.82;5.28;;;21.90;99.90;;;;;;4994439;28;20061;-41
2022/09/14 12:54:07;;;;;;;5.85;4.90;;;21.90;99.90;;;;;;4993224;28;20449;-42
2022/09/14 12:57:01;;;;;;;6.18;5.47;;;21.90;99.90;;;;;;4994781;28;20026;-46
2022/09/14 12:59:35;;;;;;;6.70;5.35;;;21.90;99.90;;;;;;4994837;28;20090;-48
2022/09/14 13:02:38;;;;;;;8.80;6.27;;;21.90;99.90;;;;;;4992874;28;20100;-45